createdAt,value
2023-04-10T00:00:13.587Z,14.75
2023-04-10T00:03:52.180Z,15.70
2023-04-10T00:05:20.517Z,14.90
2023-04-10T00:06:49.408Z,15.27
2023-04-10T00:07:53.766Z,16.58
2023-04-10T00:09:12.638Z,15.40
2023-04-10T00:11:46.941Z,15.60
2023-04-10T00:15:21.584Z,15.95
2023-04-10T00:16:38.510Z,14.32
2023-04-10T00:17:48.295Z,16.50
2023-04-10T00:19:38.080Z,15.85
2023-04-10T00:20:48.901Z,14.80
2023-04-10T00:22:01.302Z,15.35
2023-04-10T00:23:14.947Z,17.25
2023-04-10T00:24:20.768Z,15.60
2023-04-10T00:25:44.785Z,15.25
2023-04-10T00:26:57.582Z,16.35
2023-04-10T00:28:11.149Z,16.95
2023-04-10T00:35:40.884Z,15.48
2023-04-10T00:36:46.160Z,15.27
2023-04-10T00:39:46.576Z,16.83
2023-04-10T00:50:08.029Z,13.93
2023-04-10T00:51:12.138Z,15.02
2023-04-10T00:52:31.795Z,16.02
2023-04-10T00:53:56.752Z,17.45
2023-04-10T00:55:03.438Z,17.65
2023-04-10T00:56:21.381Z,17.38
2023-04-10T00:57:24.427Z,15.77
2023-04-10T00:58:27.117Z,15.88
2023-04-10T00:59:44.694Z,17.35
2023-04-10T01:01:00.611Z,16.70
2023-04-10T01:02:13.658Z,15.75
2023-04-10T01:03:31.291Z,17.50
2023-04-10T01:04:34.445Z,16.65
2023-04-10T01:06:17.661Z,16.85
2023-04-10T01:08:12.394Z,16.20
2023-04-10T01:09:33.384Z,17.50
2023-04-10T01:11:13.716Z,17.20
2023-04-10T01:12:57.877Z,17.70
2023-04-10T01:14:41.704Z,17.17
2023-04-10T01:16:08.576Z,15.82
2023-04-10T01:17:49.845Z,16.15
2023-04-10T01:19:06.304Z,15.85
2023-04-10T01:20:16.788Z,16.90
2023-04-10T01:21:35.717Z,16.70
2023-04-10T01:23:30.984Z,17.02
2023-04-10T01:24:52.210Z,16.55
2023-04-10T01:26:04.313Z,16.70
2023-04-10T01:27:34.926Z,17.60
2023-04-10T01:29:43.059Z,16.52
2023-04-10T01:31:02.436Z,15.80
2023-04-10T01:32:21.931Z,17.13
2023-04-10T01:34:04.229Z,17.15
2023-04-10T01:35:08.192Z,17.30
2023-04-10T01:36:56.825Z,17.55
2023-04-10T01:38:16.121Z,17.52
2023-04-10T01:39:28.713Z,16.50
2023-04-10T01:41:00.215Z,16.08
2023-04-10T01:42:53.356Z,16.85
2023-04-10T01:44:35.948Z,16.08
2023-04-10T01:45:56.327Z,15.98
2023-04-10T01:47:06.580Z,15.98
2023-04-10T01:48:14.152Z,18.10
2023-04-10T01:49:44.745Z,18.77
2023-04-10T01:51:14.189Z,17.20
2023-04-10T01:52:54.453Z,17.20
2023-04-10T01:54:40.129Z,17.10
2023-04-10T01:55:56.142Z,17.38
2023-04-10T01:57:02.493Z,17.35
2023-04-10T01:58:39.696Z,18.30
2023-04-10T01:59:51.132Z,18.20
2023-04-10T02:00:53.620Z,16.73
2023-04-10T02:02:01.270Z,17.80
2023-04-10T02:03:03.993Z,17.60
2023-04-10T02:04:14.249Z,17.13
2023-04-10T02:05:24.091Z,18.02
2023-04-10T02:07:29.606Z,16.98
2023-04-10T02:13:36.452Z,15.10
2023-04-10T02:14:45.656Z,16.20
2023-04-10T02:16:18.305Z,16.73
2023-04-10T02:17:36.638Z,17.15
2023-04-10T02:18:48.838Z,17.83
2023-04-10T02:21:40.361Z,17.67
2023-04-10T02:23:04.156Z,17.90
2023-04-10T02:24:45.043Z,16.20
2023-04-10T02:25:53.440Z,17.58
2023-04-10T02:27:12.276Z,17.45
2023-04-10T02:28:37.373Z,18.35
2023-04-10T02:29:42.055Z,17.95
2023-04-10T02:30:58.083Z,18.00
2023-04-10T02:32:01.527Z,16.80
2023-04-10T02:33:28.567Z,18.67
2023-04-10T02:35:18.809Z,17.55
2023-04-10T02:36:21.680Z,17.08
2023-04-10T02:37:24.552Z,18.67
2023-04-10T02:38:33.571Z,19.27
2023-04-10T02:39:37.304Z,17.88
2023-04-10T02:40:40.299Z,18.35
2023-04-10T02:42:05.958Z,18.60
2023-04-10T02:43:16.173Z,18.00
2023-04-10T02:44:30.548Z,18.90
2023-04-10T02:45:47.952Z,18.85
2023-04-10T02:48:11.366Z,18.25
2023-04-10T02:49:19.869Z,17.67
2023-04-10T02:50:48.179Z,18.58
2023-04-10T02:51:56.960Z,18.75
2023-04-10T02:54:10.732Z,18.98
2023-04-10T02:55:19.122Z,18.45
2023-04-10T02:56:39.918Z,18.20
2023-04-10T02:57:57.573Z,18.23
2023-04-10T02:59:34.970Z,18.23
2023-04-10T03:01:54.333Z,21.58
2023-04-10T03:02:48.155Z,18.75
2023-04-10T03:04:16.700Z,18.90
2023-04-10T03:05:31.866Z,19.52
2023-04-10T03:07:04.190Z,19.40
2023-04-10T03:08:06.648Z,19.92
2023-04-10T03:09:09.163Z,21.75
2023-04-10T03:10:59.141Z,21.30
2023-04-10T03:12:00.841Z,19.73
2023-04-10T03:13:12.066Z,21.33
2023-04-10T03:14:32.390Z,20.10
2023-04-10T03:16:00.943Z,20.92
2023-04-10T03:17:06.605Z,19.17
2023-04-10T03:18:36.418Z,19.48
2023-04-10T03:21:40.152Z,20.27
2023-04-10T03:25:29.053Z,19.30
2023-04-10T03:30:39.424Z,18.33
2023-04-10T03:32:13.043Z,19.58
2023-04-10T03:33:16.395Z,19.23
2023-04-10T03:34:18.878Z,20.85
2023-04-10T03:35:21.533Z,21.70
2023-04-10T03:36:24.077Z,20.00
2023-04-10T03:37:40.198Z,21.02
2023-04-10T03:38:42.886Z,20.30
2023-04-10T03:39:49.644Z,20.25
2023-04-10T03:40:52.472Z,20.02
2023-04-10T03:42:45.100Z,20.13
2023-04-10T03:43:48.278Z,19.92
2023-04-10T03:46:30.177Z,20.02
2023-04-10T03:50:48.965Z,19.60
2023-04-10T03:52:21.111Z,20.15
2023-04-10T03:54:01.013Z,20.70
2023-04-10T03:56:57.380Z,23.40
2023-04-10T03:58:09.152Z,21.90
2023-04-10T04:06:51.863Z,20.77
2023-04-10T04:08:19.394Z,20.15
2023-04-10T04:12:38.337Z,19.65
2023-04-10T04:17:01.957Z,17.80
2023-04-10T04:26:47.335Z,21.35
2023-04-10T04:32:16.294Z,28.50
2023-04-10T04:36:50.459Z,27.15
2023-04-10T04:43:20.804Z,27.98
2023-04-10T04:46:46.188Z,24.40
2023-04-10T04:48:40.693Z,23.98
2023-04-10T04:51:51.868Z,22.30
2023-04-10T05:03:36.550Z,19.73
2023-04-10T05:22:42.203Z,19.58
2023-04-10T05:30:21.081Z,18.27
2023-04-10T05:31:43.858Z,20.45
2023-04-10T05:33:32.794Z,21.65
2023-04-10T05:37:20.644Z,19.63
2023-04-10T05:38:41.658Z,19.42
2023-04-10T05:42:36.262Z,20.38
2023-04-10T05:46:53.352Z,20.70
2023-04-10T05:48:49.013Z,19.48
2023-04-10T06:00:20.550Z,24.83
2023-04-10T06:01:56.890Z,24.42
2023-04-10T06:03:10.791Z,35.58
2023-04-10T06:04:49.690Z,43.78
2023-04-10T06:06:17.704Z,44.10
2023-04-10T06:07:50.874Z,47.03
2023-04-10T06:09:18.987Z,47.78
2023-04-10T06:10:30.161Z,48.20
2023-04-10T06:11:34.071Z,58.15
2023-04-10T06:12:57.492Z,49.40
2023-04-10T06:16:07.326Z,27.80
2023-04-10T06:17:12.421Z,23.83
2023-04-10T06:18:22.478Z,24.58
2023-04-10T06:19:25.010Z,22.33
2023-04-10T06:20:27.625Z,20.40
2023-04-10T06:21:44.715Z,21.10
2023-04-10T06:22:59.225Z,21.77
2023-04-10T06:24:01.775Z,23.70
2023-04-10T06:25:05.656Z,23.65
2023-04-10T06:26:11.413Z,24.08
2023-04-10T06:27:25.023Z,25.17
2023-04-10T06:28:38.189Z,24.00
2023-04-10T06:29:47.196Z,26.42
2023-04-10T06:30:56.157Z,24.60
2023-04-10T06:32:06.671Z,24.25
2023-04-10T06:33:12.643Z,26.02
2023-04-10T06:34:18.906Z,24.73
2023-04-10T06:35:33.131Z,24.02
2023-04-10T06:36:36.197Z,28.60
2023-04-10T06:38:07.846Z,23.33
2023-04-10T06:39:11.400Z,23.92
2023-04-10T06:40:15.206Z,25.02
2023-04-10T06:41:17.883Z,24.25
2023-04-10T06:42:20.745Z,26.10
2023-04-10T06:43:35.572Z,24.10
2023-04-10T06:44:38.219Z,23.50
2023-04-10T06:45:40.783Z,26.90
2023-04-10T06:46:43.807Z,25.40
2023-04-10T06:47:46.393Z,25.52
2023-04-10T06:48:49.116Z,25.35
2023-04-10T06:49:51.750Z,26.60
2023-04-10T06:50:54.246Z,26.27
2023-04-10T06:51:56.858Z,24.42
2023-04-10T06:53:01.110Z,25.02
2023-04-10T06:54:06.951Z,24.95
2023-04-10T06:55:09.729Z,24.85
2023-04-10T06:56:12.357Z,24.75
2023-04-10T06:57:15.061Z,26.83
2023-04-10T06:58:18.222Z,24.38
2023-04-10T06:59:20.967Z,24.52
2023-04-10T07:00:26.918Z,27.05
2023-04-10T07:01:36.019Z,26.00
2023-04-10T07:03:12.025Z,25.95
2023-04-10T07:05:00.631Z,25.10
2023-04-10T07:10:11.317Z,23.75
2023-04-10T07:11:14.078Z,25.65
2023-04-10T07:12:16.944Z,25.83
2023-04-10T07:13:19.558Z,24.65
2023-04-10T07:14:22.188Z,27.58
2023-04-10T07:15:26.028Z,27.50
2023-04-10T07:16:29.694Z,25.33
2023-04-10T07:17:32.422Z,26.10
2023-04-10T07:18:36.076Z,25.15
2023-04-10T07:19:41.545Z,25.98
2023-04-10T07:20:44.186Z,26.13
2023-04-10T07:21:50.338Z,24.95
2023-04-10T07:22:53.903Z,24.65
2023-04-10T07:23:56.445Z,25.80
2023-04-10T07:25:07.989Z,24.52
2023-04-10T07:26:10.734Z,25.35
2023-04-10T07:27:13.153Z,26.50
2023-04-10T07:28:41.461Z,27.95
2023-04-10T07:29:43.878Z,26.88
2023-04-10T07:34:14.802Z,24.35
2023-04-10T07:41:26.135Z,21.88
2023-04-10T07:42:40.360Z,25.35
2023-04-10T07:43:42.916Z,23.60
2023-04-10T07:45:00.468Z,24.35
2023-04-10T07:46:03.327Z,26.02
2023-04-10T07:47:11.721Z,25.63
2023-04-10T07:48:14.493Z,24.55
2023-04-10T07:49:34.081Z,23.25
2023-04-10T07:51:11.050Z,25.77
2023-04-10T07:52:54.367Z,23.48
2023-04-10T07:53:57.003Z,25.55
2023-04-10T07:55:02.965Z,25.58
2023-04-10T07:56:06.230Z,24.90
2023-04-10T07:57:09.106Z,23.92
2023-04-10T07:58:14.368Z,25.48
2023-04-10T07:59:32.354Z,24.60
2023-04-10T08:00:36.799Z,24.15
2023-04-10T08:01:49.234Z,23.63
2023-04-10T08:02:52.527Z,24.02
2023-04-10T08:03:56.547Z,24.23
2023-04-10T08:06:51.170Z,22.58
2023-04-10T08:07:57.140Z,24.08
2023-04-10T08:08:59.676Z,23.50
2023-04-10T08:10:28.067Z,26.15
2023-04-10T08:13:15.945Z,22.30
2023-04-10T08:14:22.615Z,23.50
2023-04-10T08:15:31.119Z,24.85
2023-04-10T08:17:02.085Z,24.05
2023-04-10T08:18:24.402Z,23.80
2023-04-10T08:19:33.049Z,23.33
2023-04-10T08:20:38.052Z,24.90
2023-04-10T08:21:40.652Z,24.42
2023-04-10T08:23:19.725Z,25.02
2023-04-10T08:24:33.569Z,25.15
2023-04-10T08:25:36.348Z,24.23
2023-04-10T08:26:38.761Z,24.73
2023-04-10T08:27:45.012Z,25.92
2023-04-10T08:30:31.776Z,26.02
2023-04-10T08:31:34.827Z,25.92
2023-04-10T08:32:39.658Z,25.73
2023-04-10T08:33:41.991Z,26.17
2023-04-10T08:34:44.523Z,26.38
2023-04-10T08:37:49.691Z,26.90
2023-04-10T08:38:53.638Z,27.13
2023-04-10T08:39:56.686Z,25.17
2023-04-10T08:47:01.913Z,23.75
2023-04-10T08:48:18.761Z,24.80
2023-04-10T08:49:58.701Z,24.85
2023-04-10T08:51:08.911Z,24.15
2023-04-10T08:52:22.911Z,26.25
2023-04-10T08:53:34.610Z,26.08
2023-04-10T08:55:00.551Z,25.63
2023-04-10T08:56:04.696Z,24.90
2023-04-10T08:58:13.877Z,22.23
2023-04-10T08:59:16.675Z,25.67
2023-04-10T09:00:23.325Z,24.40
2023-04-10T09:03:32.723Z,23.05
2023-04-10T09:04:35.651Z,24.75
2023-04-10T09:05:38.298Z,23.65
2023-04-10T09:06:41.348Z,25.77
2023-04-10T09:07:44.542Z,24.58
2023-04-10T09:08:47.377Z,25.77
2023-04-10T09:09:53.963Z,25.67
2023-04-10T09:10:57.516Z,25.83
2023-04-10T09:12:01.869Z,25.65
2023-04-10T09:13:07.408Z,26.00
2023-04-10T09:16:29.212Z,25.15
2023-04-10T09:19:33.079Z,25.02
2023-04-10T09:20:35.608Z,25.80
2023-04-10T09:21:38.204Z,26.83
2023-04-10T09:22:40.858Z,23.75
2023-04-10T09:23:44.809Z,26.67
2023-04-10T09:25:51.245Z,25.23
2023-04-10T09:26:54.630Z,25.05
2023-04-10T09:28:08.544Z,26.75
2023-04-10T09:29:14.812Z,26.52
2023-04-10T09:30:34.121Z,26.23
2023-04-10T09:31:38.197Z,26.10
2023-04-10T09:32:42.647Z,28.23
2023-04-10T09:33:48.640Z,28.15
2023-04-10T09:34:54.297Z,26.80
2023-04-10T09:36:04.557Z,27.08
2023-04-10T09:38:20.097Z,24.88
2023-04-10T09:39:23.458Z,25.15
2023-04-10T09:40:29.571Z,25.27
2023-04-10T09:41:32.290Z,25.60
2023-04-10T09:42:39.193Z,26.55
2023-04-10T09:44:08.181Z,24.42
2023-04-10T09:45:10.707Z,25.30
2023-04-10T09:46:26.653Z,24.05
2023-04-10T09:47:29.399Z,22.23
2023-04-10T09:48:32.395Z,25.27
2023-04-10T09:49:49.767Z,24.40
2023-04-10T09:50:52.630Z,23.70
2023-04-10T09:51:55.340Z,24.27
2023-04-10T09:52:58.410Z,24.85
2023-04-10T09:54:01.622Z,24.20
2023-04-10T09:55:33.043Z,25.90
2023-04-10T09:57:44.349Z,22.25
2023-04-10T09:58:47.771Z,24.13
2023-04-10T10:01:53.589Z,22.70
2023-04-10T10:03:21.571Z,23.33
2023-04-10T10:04:46.054Z,25.67
2023-04-10T10:06:22.359Z,30.30
2023-04-10T10:07:57.783Z,28.88
2023-04-10T10:09:04.943Z,27.17
2023-04-10T10:10:09.467Z,24.05
2023-04-10T10:11:18.382Z,25.27
2023-04-10T10:12:28.730Z,26.27
2023-04-10T10:13:37.604Z,24.95
2023-04-10T10:15:30.722Z,25.67
2023-04-10T10:16:44.031Z,23.00
2023-04-10T10:18:04.982Z,24.40
2023-04-10T10:19:20.674Z,23.63
2023-04-10T10:20:25.165Z,23.45
2023-04-10T10:21:29.614Z,23.50
2023-04-10T10:22:32.781Z,22.48
2023-04-10T10:23:35.932Z,25.17
2023-04-10T10:24:38.823Z,22.15
2023-04-10T10:25:42.272Z,23.65
2023-04-10T10:27:50.719Z,21.10
2023-04-10T10:28:54.484Z,23.10
2023-04-10T10:30:03.078Z,24.98
2023-04-10T10:31:08.782Z,25.65
2023-04-10T10:32:12.745Z,24.58
2023-04-10T10:33:15.440Z,25.70
2023-04-10T10:34:18.561Z,25.98
2023-04-10T10:35:22.989Z,24.75
2023-04-10T10:36:35.070Z,25.13
2023-04-10T10:37:40.386Z,24.42
2023-04-10T10:38:51.669Z,24.20
2023-04-10T10:40:53.532Z,23.90
2023-04-10T10:42:34.460Z,26.00
2023-04-10T10:44:20.221Z,25.40
2023-04-10T10:46:01.504Z,23.55
2023-04-10T10:47:29.835Z,23.23
2023-04-10T10:50:06.993Z,24.85
2023-04-10T10:51:10.100Z,25.35
2023-04-10T10:52:12.944Z,25.65
2023-04-10T10:53:32.080Z,25.73
2023-04-10T10:54:47.207Z,24.08
2023-04-10T10:56:03.146Z,24.38
2023-04-10T10:59:12.724Z,24.92
2023-04-10T11:00:37.428Z,26.33
2023-04-10T11:02:03.649Z,28.15
2023-04-10T11:03:22.862Z,25.52
2023-04-10T11:04:43.179Z,27.08
2023-04-10T11:05:52.454Z,27.00
2023-04-10T11:06:55.208Z,26.50
2023-04-10T11:08:00.908Z,26.60
2023-04-10T11:09:05.520Z,26.33
2023-04-10T11:10:08.355Z,28.15
2023-04-10T11:11:16.650Z,25.85
2023-04-10T11:13:03.498Z,26.90
2023-04-10T11:14:07.648Z,26.08
2023-04-10T11:16:13.006Z,24.33
2023-04-10T11:17:51.860Z,23.35
2023-04-10T11:19:06.350Z,24.60
2023-04-10T11:20:15.838Z,24.63
2023-04-10T11:21:22.105Z,25.05
2023-04-10T11:22:24.563Z,25.30
2023-04-10T11:23:27.037Z,23.85
2023-04-10T11:24:30.446Z,24.08
2023-04-10T11:25:58.926Z,21.85
2023-04-10T11:27:01.913Z,24.05
2023-04-10T11:28:04.585Z,23.15
2023-04-10T11:29:21.428Z,24.27
2023-04-10T11:30:29.156Z,23.20
2023-04-10T11:31:32.836Z,24.40
2023-04-10T11:32:42.514Z,23.83
2023-04-10T11:33:46.379Z,23.05
2023-04-10T11:34:49.247Z,23.30
2023-04-10T11:35:52.005Z,21.98
2023-04-10T11:36:55.030Z,23.55
2023-04-10T11:38:15.077Z,22.15
2023-04-10T11:39:21.685Z,22.67
2023-04-10T11:40:24.264Z,22.13
2023-04-10T11:41:32.150Z,22.15
2023-04-10T11:42:34.589Z,24.15
2023-04-10T11:43:36.943Z,22.30
2023-04-10T11:44:39.751Z,21.80
2023-04-10T11:45:42.460Z,21.95
2023-04-10T11:46:51.225Z,21.98
2023-04-10T11:47:54.352Z,19.90
2023-04-10T11:49:01.514Z,20.00
2023-04-10T11:50:04.294Z,20.52
2023-04-10T11:51:08.860Z,20.05
2023-04-10T11:52:11.348Z,21.42
2023-04-10T11:53:21.778Z,21.38
2023-04-10T11:55:39.374Z,22.42
2023-04-10T11:56:47.506Z,20.92
2023-04-10T11:57:49.984Z,21.90
2023-04-10T11:58:58.487Z,22.15
2023-04-10T12:00:05.728Z,23.60
2023-04-10T12:01:14.492Z,24.00
2023-04-10T12:02:17.274Z,23.02
2023-04-10T12:03:48.396Z,23.30
2023-04-10T12:05:41.601Z,21.48
2023-04-10T12:07:01.620Z,20.95
2023-04-10T12:08:11.973Z,21.02
2023-04-10T12:10:29.271Z,20.40
2023-04-10T12:11:57.163Z,20.75
2023-04-10T12:13:24.906Z,20.75
2023-04-10T12:16:52.977Z,19.80
2023-04-10T12:18:06.439Z,21.08
2023-04-10T12:19:40.448Z,19.08
2023-04-10T12:20:56.453Z,21.08
2023-04-10T12:22:11.768Z,23.17
2023-04-10T12:23:14.575Z,23.33
2023-04-10T12:24:52.844Z,22.75
2023-04-10T12:28:04.977Z,23.90
2023-04-10T12:29:08.288Z,22.10
2023-04-10T12:30:10.691Z,23.45
2023-04-10T12:31:15.983Z,20.23
2023-04-10T12:32:19.080Z,20.88
2023-04-10T12:33:27.862Z,21.95
2023-04-10T12:34:37.490Z,22.75
2023-04-10T12:36:23.749Z,22.38
2023-04-10T12:37:55.083Z,20.55
2023-04-10T12:39:07.864Z,22.00
2023-04-10T12:40:11.893Z,21.60
2023-04-10T12:41:14.326Z,21.33
2023-04-10T12:42:23.487Z,21.83
2023-04-10T12:43:48.274Z,19.92
2023-04-10T12:45:02.712Z,21.77
2023-04-10T12:46:06.839Z,20.92
2023-04-10T12:47:09.730Z,22.35
2023-04-10T12:48:12.264Z,22.20
2023-04-10T12:49:19.031Z,23.13
2023-04-10T12:50:23.628Z,22.35
2023-04-10T12:51:48.331Z,24.25
2023-04-10T12:53:14.140Z,24.98
2023-04-10T12:54:35.757Z,25.23
2023-04-10T12:58:00.523Z,23.08
2023-04-10T12:59:13.238Z,24.80
2023-04-10T13:03:42.585Z,21.23
2023-04-10T13:05:02.122Z,22.50
2023-04-10T13:06:07.730Z,22.65
2023-04-10T13:07:19.646Z,22.85
2023-04-10T13:08:22.832Z,20.98
2023-04-10T13:09:51.306Z,21.50
2023-04-10T13:11:27.956Z,21.17
2023-04-10T13:12:30.573Z,22.42
2023-04-10T13:13:33.446Z,21.67
2023-04-10T13:16:18.322Z,19.80
2023-04-10T13:17:54.369Z,19.77
2023-04-10T13:19:11.136Z,18.35
2023-04-10T13:20:28.194Z,19.85
2023-04-10T13:21:46.621Z,20.08
2023-04-10T13:22:49.318Z,19.85
2023-04-10T13:23:58.086Z,20.02
2023-04-10T13:25:41.025Z,20.05
2023-04-10T13:26:51.886Z,19.05
2023-04-10T13:27:55.327Z,19.25
2023-04-10T13:29:06.273Z,18.65
2023-04-10T13:30:12.370Z,18.02
2023-04-10T13:31:23.789Z,18.05
2023-04-10T13:32:55.535Z,19.13
2023-04-10T13:33:58.052Z,16.83
2023-04-10T13:35:00.618Z,17.63
2023-04-10T13:36:03.375Z,18.20
2023-04-10T13:37:06.365Z,18.00
2023-04-10T13:38:09.660Z,18.20
2023-04-10T13:39:16.658Z,18.17
2023-04-10T13:40:21.886Z,17.48
2023-04-10T13:41:25.624Z,16.40
2023-04-10T13:42:28.892Z,17.10
2023-04-10T13:43:31.336Z,17.38
2023-04-10T13:44:40.681Z,16.00
2023-04-10T13:45:50.190Z,17.00
2023-04-10T13:46:52.638Z,15.80
2023-04-10T13:47:55.198Z,17.10
2023-04-10T13:49:06.628Z,16.92
2023-04-10T13:50:14.359Z,16.02
2023-04-10T13:51:17.110Z,16.20
2023-04-10T13:53:29.352Z,17.50
2023-04-10T13:54:31.849Z,15.50
2023-04-10T13:55:38.136Z,14.88
2023-04-10T13:56:41.408Z,15.32
2023-04-10T13:57:44.209Z,14.30
2023-04-10T13:58:47.407Z,15.23
2023-04-10T14:00:14.459Z,14.82
2023-04-10T14:01:20.866Z,14.85
2023-04-10T14:02:23.465Z,14.63
2023-04-10T14:03:26.228Z,16.45
2023-04-10T14:04:28.647Z,14.95
2023-04-10T14:05:31.064Z,14.20
2023-04-10T14:06:41.484Z,16.58
2023-04-10T14:07:47.602Z,14.98
2023-04-10T14:09:17.435Z,15.82
2023-04-10T14:11:09.764Z,14.77
2023-04-10T14:12:21.477Z,14.02
2023-04-10T14:13:24.204Z,13.18
2023-04-10T14:15:00.525Z,13.63
2023-04-10T14:19:16.632Z,13.02
2023-04-10T14:20:23.429Z,13.95
2023-04-10T14:21:28.206Z,14.77
2023-04-10T14:22:41.915Z,13.43
2023-04-10T14:28:16.964Z,13.80
2023-04-10T14:29:25.414Z,15.73
2023-04-10T14:31:32.602Z,14.35
2023-04-10T14:32:42.201Z,16.58
2023-04-10T14:34:03.539Z,21.95
2023-04-10T14:39:57.506Z,16.13
2023-04-10T14:41:46.883Z,16.13
2023-04-10T14:43:21.487Z,12.82
2023-04-10T14:44:53.656Z,13.55
2023-04-10T14:46:11.907Z,12.40
2023-04-10T14:49:20.749Z,13.48
2023-04-10T14:52:32.055Z,12.77
2023-04-10T14:54:10.068Z,13.68
2023-04-10T14:55:54.282Z,12.60
2023-04-10T14:59:17.848Z,13.02
2023-04-10T15:00:48.914Z,13.43
2023-04-10T15:03:06.674Z,13.75
2023-04-10T15:06:37.485Z,13.57
2023-04-10T15:07:46.369Z,13.35
2023-04-10T15:09:03.970Z,14.20
2023-04-10T15:10:07.444Z,13.85
2023-04-10T15:11:38.314Z,13.93
2023-04-10T15:13:03.166Z,14.82
2023-04-10T15:14:16.265Z,12.88
2023-04-10T15:15:21.528Z,14.02
2023-04-10T15:18:37.697Z,13.35
2023-04-10T15:19:41.093Z,12.95
2023-04-10T15:21:28.631Z,12.73
2023-04-10T15:23:06.351Z,12.80
2023-04-10T15:24:49.771Z,13.65
2023-04-10T15:26:17.487Z,11.30
2023-04-10T15:27:21.633Z,12.68
2023-04-10T15:28:36.923Z,11.45
2023-04-10T15:31:00.926Z,12.48
2023-04-10T15:32:03.551Z,12.82
2023-04-10T15:33:13.635Z,12.20
2023-04-10T15:34:16.274Z,13.00
2023-04-10T15:35:33.981Z,12.85
2023-04-10T15:36:39.114Z,13.80
2023-04-10T15:38:02.488Z,12.52
2023-04-10T15:39:20.441Z,13.57
2023-04-10T15:40:24.792Z,14.65
2023-04-10T15:41:35.600Z,13.55
2023-04-10T15:42:38.535Z,14.05
2023-04-10T15:43:46.419Z,14.05
2023-04-10T15:47:12.413Z,12.73
2023-04-10T15:52:11.583Z,13.27
2023-04-10T15:53:46.462Z,14.05
2023-04-10T16:01:49.910Z,12.70
2023-04-10T16:02:56.013Z,13.23
2023-04-10T16:04:41.340Z,12.02
2023-04-10T16:06:06.223Z,12.35
2023-04-10T16:08:49.684Z,12.70
2023-04-10T16:10:02.837Z,11.60
2023-04-10T16:11:13.064Z,11.60
2023-04-10T16:12:15.680Z,11.65
2023-04-10T16:14:40.425Z,11.30
2023-04-10T16:18:04.743Z,12.38
2023-04-10T16:19:32.592Z,11.45
2023-04-10T16:20:35.595Z,11.45
2023-04-10T16:21:47.648Z,12.63
2023-04-10T16:23:40.673Z,11.90
2023-04-10T16:24:54.329Z,12.02
2023-04-10T16:25:56.770Z,12.40
2023-04-10T16:27:35.408Z,11.60
2023-04-10T16:28:38.990Z,14.43
2023-04-10T16:29:41.696Z,15.75
2023-04-10T16:30:59.130Z,14.27
2023-04-10T16:32:01.891Z,16.50
2023-04-10T16:33:04.616Z,14.55
2023-04-10T16:34:07.158Z,13.60
2023-04-10T16:35:09.886Z,14.73
2023-04-10T16:36:54.532Z,15.82
2023-04-10T16:38:01.591Z,14.45
2023-04-10T16:39:26.200Z,15.68
2023-04-10T16:40:32.741Z,18.23
2023-04-10T16:41:38.930Z,19.40
2023-04-10T16:42:43.015Z,21.98
2023-04-10T16:44:49.638Z,23.17
2023-04-10T16:46:01.252Z,21.20
2023-04-10T16:47:07.282Z,20.55
2023-04-10T16:49:11.987Z,16.83
2023-04-10T16:50:18.949Z,15.93
2023-04-10T16:51:21.678Z,17.58
2023-04-10T16:54:14.786Z,17.25
2023-04-10T16:55:17.266Z,33.47
2023-04-10T16:56:23.981Z,33.17
2023-04-10T16:57:27.240Z,27.20
2023-04-10T16:58:29.672Z,21.10
2023-04-10T16:59:32.956Z,17.02
2023-04-10T17:00:44.630Z,15.70
2023-04-10T17:01:49.537Z,15.00
2023-04-10T17:02:52.230Z,14.52
2023-04-10T17:03:55.326Z,14.55
2023-04-10T17:05:01.249Z,16.67
2023-04-10T17:06:04.435Z,13.90
2023-04-10T17:07:07.044Z,15.75
2023-04-10T17:08:09.680Z,13.63
2023-04-10T17:09:12.569Z,13.88
2023-04-10T17:10:24.139Z,14.18
2023-04-10T17:11:26.680Z,13.38
2023-04-10T17:12:31.987Z,12.05
2023-04-10T17:13:43.357Z,14.75
2023-04-10T17:14:50.072Z,14.13
2023-04-10T17:16:00.452Z,11.75
2023-04-10T17:17:03.548Z,11.35
2023-04-10T17:18:06.558Z,10.80
2023-04-10T17:19:09.357Z,10.95
2023-04-10T17:20:26.551Z,11.35
2023-04-10T17:21:29.159Z,11.57
2023-04-10T17:22:31.683Z,11.88
2023-04-10T17:23:34.904Z,11.65
2023-04-10T17:25:42.786Z,11.88
2023-04-10T17:26:59.611Z,13.57
2023-04-10T17:28:17.899Z,19.13
2023-04-10T17:29:22.178Z,18.95
2023-04-10T17:30:26.602Z,19.60
2023-04-10T17:31:39.169Z,17.63
2023-04-10T17:32:42.363Z,21.20
2023-04-10T17:34:10.098Z,21.65
2023-04-10T17:35:12.635Z,20.73
2023-04-10T17:36:28.361Z,17.02
2023-04-10T17:37:35.769Z,21.20
2023-04-10T17:38:39.280Z,19.23
2023-04-10T17:39:42.585Z,18.40
2023-04-10T17:40:47.806Z,14.77
2023-04-10T17:41:50.769Z,18.52
2023-04-10T17:43:02.223Z,17.83
2023-04-10T17:44:14.720Z,15.10
2023-04-10T17:45:18.141Z,12.57
2023-04-10T17:46:35.477Z,12.02
2023-04-10T17:47:38.648Z,12.68
2023-04-10T17:48:45.006Z,13.77
2023-04-10T17:50:07.227Z,13.18
2023-04-10T17:51:10.325Z,13.15
2023-04-10T17:52:12.826Z,13.50
2023-04-10T17:53:16.144Z,13.55
2023-04-10T17:54:21.486Z,13.18
2023-04-10T17:55:25.058Z,12.63
2023-04-10T17:56:29.724Z,14.13
2023-04-10T17:57:40.280Z,12.93
2023-04-10T17:58:44.457Z,13.63
2023-04-10T18:00:51.623Z,25.00
2023-04-10T18:02:06.473Z,19.70
2023-04-10T18:03:19.147Z,29.50
2023-04-10T18:06:10.348Z,29.67
2023-04-10T18:07:13.702Z,32.03
2023-04-10T18:08:20.508Z,26.63
2023-04-10T18:09:31.652Z,28.63
2023-04-10T18:10:39.051Z,25.35
2023-04-10T18:11:41.553Z,25.63
2023-04-10T18:12:45.086Z,21.60
2023-04-10T18:13:47.551Z,21.88
2023-04-10T18:14:57.429Z,19.55
2023-04-10T18:16:04.771Z,18.63
2023-04-10T18:17:08.674Z,18.98
2023-04-10T18:18:11.911Z,18.20
2023-04-10T18:19:28.184Z,18.17
2023-04-10T18:20:40.353Z,19.13
2023-04-10T18:22:13.267Z,22.58
2023-04-10T18:23:15.834Z,26.60
2023-04-10T18:24:18.715Z,25.35
2023-04-10T18:25:22.250Z,26.77
2023-04-10T18:28:13.024Z,34.28
2023-04-10T18:29:16.142Z,50.05
2023-04-10T18:31:43.952Z,43.75
2023-04-10T18:32:52.235Z,33.17
2023-04-10T18:34:04.081Z,37.72
2023-04-10T18:35:12.057Z,27.98
2023-04-10T18:36:23.190Z,29.40
2023-04-10T18:40:06.385Z,33.28
2023-04-10T18:41:20.027Z,34.13
2023-04-10T18:42:31.199Z,42.00
2023-04-10T18:45:10.929Z,41.83
2023-04-10T18:48:48.036Z,27.50
2023-04-10T18:49:51.102Z,27.25
2023-04-10T18:50:55.021Z,27.52
2023-04-10T18:51:58.290Z,23.88
2023-04-10T18:53:01.294Z,28.17
2023-04-10T18:55:07.155Z,31.60
2023-04-10T18:58:49.670Z,26.02
2023-04-10T18:59:54.474Z,23.45
2023-04-10T19:00:58.313Z,22.50
2023-04-10T19:02:11.498Z,25.67
2023-04-10T19:03:17.972Z,23.88
2023-04-10T19:05:14.964Z,24.38
2023-04-10T19:06:25.153Z,20.10
2023-04-10T19:07:28.030Z,18.92
2023-04-10T19:08:31.196Z,18.75
2023-04-10T19:09:37.834Z,19.77
2023-04-10T19:10:42.396Z,17.15
2023-04-10T19:11:45.076Z,17.55
2023-04-10T19:15:12.692Z,14.77
2023-04-10T19:16:19.747Z,16.00
2023-04-10T19:17:49.142Z,14.68
2023-04-10T19:19:02.087Z,13.68
2023-04-10T19:20:08.609Z,12.57
2023-04-10T19:21:11.398Z,13.63
2023-04-10T19:22:20.205Z,13.45
2023-04-10T19:23:26.643Z,12.35
2023-04-10T19:24:37.111Z,12.23
2023-04-10T19:25:39.848Z,11.93
2023-04-10T19:26:43.093Z,12.60
2023-04-10T19:28:11.637Z,12.23
2023-04-10T19:29:40.156Z,11.85
2023-04-10T19:30:44.867Z,13.00
2023-04-10T19:32:15.326Z,11.73
2023-04-10T19:33:21.109Z,11.85
2023-04-10T19:34:54.292Z,11.30
2023-04-10T19:35:58.539Z,11.88
2023-04-10T19:37:02.176Z,11.18
2023-04-10T19:38:05.223Z,11.88
2023-04-10T19:39:27.729Z,12.25
2023-04-10T19:40:31.701Z,12.60
2023-04-10T19:41:46.240Z,12.70
2023-04-10T19:42:49.745Z,12.60
2023-04-10T19:43:58.331Z,13.68
2023-04-10T19:45:02.007Z,13.82
2023-04-10T19:46:05.224Z,15.82
2023-04-10T19:47:11.872Z,14.88
2023-04-10T19:48:17.560Z,13.68
2023-04-10T19:49:21.905Z,13.63
2023-04-10T19:51:27.699Z,12.32
2023-04-10T19:52:34.642Z,12.82
2023-04-10T19:53:46.440Z,12.55
2023-04-10T19:54:49.252Z,13.57
2023-04-10T19:55:51.717Z,14.20
2023-04-10T19:57:01.493Z,14.50
2023-04-10T19:58:29.987Z,13.45
2023-04-10T19:59:41.101Z,13.88
2023-04-10T20:00:43.811Z,14.07
2023-04-10T20:01:46.482Z,14.77
2023-04-10T20:02:51.307Z,13.55
2023-04-10T20:03:55.576Z,13.27
2023-04-10T20:05:02.001Z,12.73